Terminal Aerodrome Forecast
Issued by NWS Sioux Falls, SD

Home | Current Version | Previous Version | Graphics & Text | Print | Product List | Glossary Off
Versions: 1 2 3 4 5 6 7 8 9 10 11 12 13 14 15

623
FTUS43 KFSD 181140
TAFHON
TAF
KHON 181140Z 1812/1912 15008KT P6SM BKN110
     FM181400 17010KT P6SM SCT130
     FM190100 14009KT P6SM FEW200
     FM190600 15011KT P6SM SCT015
     FM190800 15012KT 6SM BR OVC012=

USA.gov is the U.S. government's official web portal to all federal, state and local government web resources and services.